Time;durP1;ratioP1;P1;durP2;ratioP2;P2;SDS_P1;SDS_P2;PMS_P1;PMS_P2;Temp;Humidity;BMP_temperature;BMP_pressure;BME280_temperature;BME280_humidity;BME280_pressure;Samples;Min_cycle;Max_cycle;Signal;HPM_P1;HPM_P2
2022/11/25 00:01:16;;;;;;;4.12;1.98;;;4.80;99.90;;;;;;503042;236;27433;-65
2022/11/25 00:03:18;;;;;;;6.37;1.80;;;4.80;99.90;;;;;;503041;236;27480;-66
2022/11/25 00:05:19;;;;;;;5.87;2.15;;;4.80;99.90;;;;;;503039;236;28833;-66
2022/11/25 00:07:20;;;;;;;10.00;3.00;;;4.90;99.90;;;;;;503035;236;27886;-66
2022/11/25 00:09:21;;;;;;;9.25;3.80;;;5.00;99.90;;;;;;503056;236;28060;-67
2022/11/25 00:11:23;;;;;;;6.97;2.85;;;5.00;99.90;;;;;;503056;236;27900;-66
2022/11/25 00:13:24;;;;;;;7.40;2.75;;;4.90;99.90;;;;;;503047;236;27476;-66
2022/11/25 00:15:25;;;;;;;6.82;3.12;;;4.90;99.90;;;;;;503054;236;27545;-65
2022/11/25 00:17:26;;;;;;;8.00;3.20;;;5.00;99.90;;;;;;503084;236;27542;-65
2022/11/25 00:19:28;;;;;;;6.55;2.78;;;5.00;99.90;;;;;;503049;236;27519;-67
2022/11/25 00:21:29;;;;;;;3.28;2.20;;;5.10;99.90;;;;;;503043;236;27454;-66
2022/11/25 00:23:31;;;;;;;4.50;2.40;;;5.00;99.90;;;;;;502893;236;27474;-66
2022/11/25 00:25:31;;;;;;;6.12;2.47;;;5.00;99.90;;;;;;502683;236;27470;-67
2022/11/25 00:27:33;;;;;;;5.85;2.30;;;5.00;99.90;;;;;;502847;236;27451;-65
2022/11/25 00:29:34;;;;;;;5.12;2.28;;;5.00;99.90;;;;;;502837;236;27457;-66
2022/11/25 00:31:35;;;;;;;2.08;1.87;;;5.00;99.90;;;;;;502975;236;27901;-65
2022/11/25 00:33:36;;;;;;;4.40;2.00;;;4.90;99.90;;;;;;503023;236;28026;-66
2022/11/25 00:35:38;;;;;;;3.25;2.00;;;5.00;99.90;;;;;;503045;236;28145;-68
2022/11/25 00:37:39;;;;;;;4.70;1.77;;;5.00;99.90;;;;;;503053;236;27919;-66
2022/11/25 00:39:40;;;;;;;1.73;1.62;;;5.10;99.90;;;;;;503060;236;27573;-67
2022/11/25 00:46:21;;;;;;;5.30;2.22;;;5.30;99.90;;;;;;503016;236;27936;-66
2022/11/25 00:48:22;;;;;;;2.17;1.52;;;5.30;99.90;;;;;;503044;236;28674;-66
2022/11/25 00:50:23;;;;;;;3.20;1.80;;;5.30;99.90;;;;;;503059;236;27423;-65
2022/11/25 00:52:24;;;;;;;2.40;1.70;;;5.30;99.90;;;;;;503031;236;27525;-68
2022/11/25 00:54:26;;;;;;;4.65;1.70;;;5.30;99.90;;;;;;503026;236;27475;-65
2022/11/25 00:56:29;;;;;;;3.47;2.28;;;5.30;99.90;;;;;;502984;236;27569;-66
2022/11/25 00:58:28;;;;;;;5.55;2.70;;;5.30;99.90;;;;;;502912;236;27481;-66
2022/11/25 01:00:29;;;;;;;4.72;2.62;;;5.40;99.90;;;;;;503026;236;27459;-66
2022/11/25 01:02:31;;;;;;;8.60;2.60;;;5.30;99.90;;;;;;503057;236;27499;-67
2022/11/25 01:04:32;;;;;;;5.30;2.67;;;5.40;99.90;;;;;;503051;236;27482;-66
2022/11/25 01:06:33;;;;;;;6.68;2.83;;;5.30;99.90;;;;;;503042;236;27473;-66
2022/11/25 01:08:34;;;;;;;6.12;2.75;;;5.30;99.90;;;;;;503048;236;28675;-66
2022/11/25 01:10:36;;;;;;;3.95;2.45;;;5.30;99.90;;;;;;503046;236;27891;-66
2022/11/25 01:12:37;;;;;;;8.40;2.35;;;5.30;99.90;;;;;;503019;236;27952;-67
2022/11/25 01:14:38;;;;;;;8.27;2.65;;;5.30;99.90;;;;;;503011;236;27453;-65
2022/11/25 01:16:39;;;;;;;5.50;2.00;;;5.30;99.90;;;;;;503036;236;27552;-66
2022/11/25 01:18:41;;;;;;;3.60;1.80;;;5.30;99.90;;;;;;503036;236;27464;-65
2022/11/25 01:20:42;;;;;;;2.10;1.90;;;5.30;99.90;;;;;;503056;236;27603;-66
2022/11/25 01:22:43;;;;;;;4.05;1.80;;;5.30;99.90;;;;;;503049;236;27468;-67
2022/11/25 01:24:44;;;;;;;5.15;2.10;;;5.30;99.90;;;;;;503033;236;27454;-66
2022/11/25 01:26:46;;;;;;;4.72;2.30;;;5.30;99.90;;;;;;503020;236;27517;-66
2022/11/25 01:28:47;;;;;;;4.10;2.10;;;5.40;99.90;;;;;;503017;236;27437;-65
2022/11/25 01:30:48;;;;;;;5.40;1.62;;;5.40;99.90;;;;;;502941;236;27438;-66
2022/11/25 01:32:49;;;;;;;2.47;1.70;;;5.50;99.90;;;;;;503062;236;27964;-67
2022/11/25 01:34:51;;;;;;;2.75;1.62;;;5.50;99.90;;;;;;503014;236;27919;-65
2022/11/25 01:36:52;;;;;;;2.72;1.60;;;5.50;99.90;;;;;;503035;236;27953;-65
2022/11/25 01:38:53;;;;;;;1.87;1.77;;;5.60;99.90;;;;;;503029;236;27474;-65
2022/11/25 01:40:54;;;;;;;1.87;1.50;;;5.60;99.90;;;;;;502983;236;27549;-66
2022/11/25 01:42:56;;;;;;;4.37;1.83;;;5.60;99.90;;;;;;503106;236;27472;-68
2022/11/25 01:44:57;;;;;;;2.30;1.67;;;5.60;99.90;;;;;;503071;236;27561;-66
2022/11/25 01:46:58;;;;;;;3.55;1.77;;;5.60;99.90;;;;;;503042;236;27509;-66
2022/11/25 01:48:59;;;;;;;1.77;1.62;;;5.60;99.90;;;;;;503054;236;27489;-69
2022/11/25 01:51:01;;;;;;;3.85;1.77;;;5.60;99.90;;;;;;503055;236;27450;-65
2022/11/25 01:53:02;;;;;;;7.47;2.33;;;5.60;99.90;;;;;;502933;236;27489;-66
2022/11/25 01:55:03;;;;;;;5.43;2.03;;;5.60;99.90;;;;;;503052;236;27899;-66
2022/11/25 01:57:04;;;;;;;4.10;1.80;;;5.60;99.90;;;;;;503028;236;28089;-66
2022/11/25 01:59:06;;;;;;;4.97;1.80;;;5.50;99.90;;;;;;503101;236;28101;-68
2022/11/25 02:01:07;;;;;;;2.55;1.70;;;5.60;99.90;;;;;;503048;236;27442;-65
2022/11/25 02:03:08;;;;;;;3.62;1.70;;;5.60;99.90;;;;;;503037;236;27496;-66
2022/11/25 02:05:09;;;;;;;1.50;1.40;;;5.70;99.90;;;;;;503014;236;27431;-66
2022/11/25 02:07:11;;;;;;;1.95;1.20;;;5.70;99.90;;;;;;503017;236;27497;-66
2022/11/25 02:09:12;;;;;;;3.10;1.83;;;5.70;99.90;;;;;;503041;236;27589;-68
2022/11/25 02:11:13;;;;;;;2.08;1.40;;;5.70;99.90;;;;;;503040;236;27449;-66
2022/11/25 02:13:14;;;;;;;1.70;1.48;;;5.70;99.90;;;;;;503026;236;27489;-66
2022/11/25 02:15:16;;;;;;;2.05;1.37;;;5.80;99.90;;;;;;503002;236;27428;-65
2022/11/25 02:17:17;;;;;;;1.50;1.40;;;5.80;99.90;;;;;;503004;236;27439;-65
2022/11/25 02:19:18;;;;;;;2.78;1.50;;;5.80;99.90;;;;;;503062;236;28002;-68
2022/11/25 02:21:19;;;;;;;2.37;1.42;;;5.80;99.90;;;;;;503017;236;27922;-66
2022/11/25 02:23:24;;;;;;;2.90;1.58;;;5.80;99.90;;;;;;503020;236;28032;-66
2022/11/25 02:25:22;;;;;;;2.15;1.50;;;5.80;99.90;;;;;;502717;236;27501;-66
2022/11/25 02:27:23;;;;;;;3.97;1.90;;;5.90;99.90;;;;;;503044;236;27434;-66
2022/11/25 02:29:24;;;;;;;2.72;1.35;;;6.00;99.90;;;;;;503056;236;27478;-68
2022/11/25 02:31:26;;;;;;;1.30;1.20;;;6.00;99.90;;;;;;503013;236;27497;-66
2022/11/25 02:33:27;;;;;;;1.90;1.70;;;6.00;99.90;;;;;;503008;236;27481;-66
2022/11/25 02:35:28;;;;;;;1.92;1.40;;;6.10;99.90;;;;;;503025;236;27553;-65
2022/11/25 02:37:29;;;;;;;2.05;1.20;;;6.20;99.90;;;;;;503061;236;27500;-66
2022/11/25 02:39:31;;;;;;;4.80;1.60;;;6.20;99.90;;;;;;503063;236;27517;-66
2022/11/25 02:41:32;;;;;;;1.80;1.33;;;6.20;99.90;;;;;;503068;236;28515;-65
2022/11/25 02:43:33;;;;;;;3.92;1.50;;;6.30;99.90;;;;;;503054;236;27972;-66
2022/11/25 02:45:35;;;;;;;1.73;1.50;;;6.20;99.90;;;;;;503072;236;27595;-68
2022/11/25 02:47:36;;;;;;;2.65;1.60;;;6.30;99.90;;;;;;503080;236;27447;-65
2022/11/25 02:49:37;;;;;;;1.90;1.40;;;6.30;99.90;;;;;;503052;236;27541;-66
2022/11/25 02:51:38;;;;;;;2.92;1.60;;;6.30;99.90;;;;;;503042;236;27448;-66
2022/11/25 02:53:40;;;;;;;2.78;1.42;;;6.30;99.90;;;;;;503011;236;27486;-66
2022/11/25 02:55:41;;;;;;;6.55;2.00;;;6.40;99.90;;;;;;503072;236;27587;-67
2022/11/25 02:57:42;;;;;;;5.43;1.85;;;6.40;99.90;;;;;;503054;236;27540;-66
2022/11/25 02:59:43;;;;;;;2.42;1.30;;;6.40;99.90;;;;;;503035;236;27564;-66
2022/11/25 03:01:45;;;;;;;3.10;1.92;;;6.50;99.90;;;;;;503018;236;27902;-65
2022/11/25 03:03:46;;;;;;;1.75;1.30;;;6.50;99.90;;;;;;502985;236;27980;-67
2022/11/25 03:05:47;;;;;;;2.55;1.40;;;6.50;99.90;;;;;;503052;236;28042;-69
2022/11/25 03:07:48;;;;;;;1.55;1.40;;;6.50;99.90;;;;;;503044;236;27422;-66
2022/11/25 03:09:50;;;;;;;1.92;1.45;;;6.60;99.90;;;;;;503067;236;27463;-66
2022/11/25 03:14:10;;;;;;;1.75;1.65;;;6.60;99.90;;;;;;503081;236;27442;-66
2022/11/25 03:16:11;;;;;;;3.65;1.73;;;6.60;99.90;;;;;;503066;236;27832;-68
2022/11/25 03:18:13;;;;;;;1.95;1.23;;;6.60;99.90;;;;;;503060;236;27441;-66
2022/11/25 03:20:14;;;;;;;1.70;1.40;;;6.70;99.90;;;;;;503054;236;27475;-66
2022/11/25 03:22:15;;;;;;;2.85;1.50;;;6.70;99.90;;;;;;503038;236;27929;-66
2022/11/25 03:24:16;;;;;;;2.67;1.48;;;6.70;99.90;;;;;;503086;236;27868;-67
2022/11/25 03:26:18;;;;;;;4.03;1.80;;;6.70;99.90;;;;;;503071;236;28029;-67
2022/11/25 03:28:19;;;;;;;1.60;1.50;;;6.70;99.90;;;;;;503073;236;27431;-66
2022/11/25 03:30:20;;;;;;;2.17;1.30;;;6.60;99.90;;;;;;503084;236;27476;-66
2022/11/25 03:32:21;;;;;;;1.62;1.40;;;6.60;99.90;;;;;;503119;236;27471;-66
2022/11/25 03:34:23;;;;;;;1.67;1.30;;;6.60;99.90;;;;;;503107;236;27441;-66
2022/11/25 03:36:24;;;;;;;3.85;1.80;;;6.70;99.90;;;;;;503094;236;27474;-67
2022/11/25 03:38:25;;;;;;;4.93;1.60;;;6.70;99.90;;;;;;503069;236;27519;-65
2022/11/25 03:40:26;;;;;;;4.28;1.62;;;6.70;99.90;;;;;;503056;236;27588;-66
2022/11/25 03:42:28;;;;;;;2.97;1.73;;;6.70;99.90;;;;;;503087;236;28437;-68
2022/11/25 03:44:29;;;;;;;1.50;1.40;;;6.70;99.90;;;;;;503086;236;27442;-66
2022/11/25 03:46:30;;;;;;;5.12;1.70;;;6.80;99.90;;;;;;503063;236;27549;-67
2022/11/25 03:48:32;;;;;;;1.95;1.45;;;6.80;99.90;;;;;;503050;236;27845;-66
2022/11/25 03:50:33;;;;;;;3.00;1.42;;;6.80;99.90;;;;;;503045;236;27475;-65
2022/11/25 03:52:34;;;;;;;3.55;1.80;;;6.70;99.90;;;;;;503083;236;27516;-68
2022/11/25 03:54:35;;;;;;;1.85;1.65;;;6.70;99.90;;;;;;503073;236;27907;-66
2022/11/25 03:56:37;;;;;;;3.45;1.45;;;6.50;99.90;;;;;;503075;236;28035;-67
2022/11/25 03:58:38;;;;;;;1.95;1.58;;;6.40;99.90;;;;;;503054;236;27514;-65
2022/11/25 04:00:39;;;;;;;2.42;1.55;;;6.30;99.90;;;;;;503022;236;27466;-66
2022/11/25 04:02:40;;;;;;;5.30;1.90;;;6.30;99.90;;;;;;503087;236;27548;-69
2022/11/25 04:04:42;;;;;;;2.35;1.55;;;6.20;99.90;;;;;;503048;236;27578;-65
2022/11/25 04:06:43;;;;;;;2.75;1.73;;;6.10;99.90;;;;;;503039;236;27490;-66
2022/11/25 04:08:44;;;;;;;5.55;1.50;;;6.00;99.90;;;;;;503013;236;27602;-65
2022/11/25 04:10:45;;;;;;;2.87;1.40;;;6.00;99.90;;;;;;503073;236;27451;-65
2022/11/25 04:12:47;;;;;;;1.75;1.65;;;6.00;99.90;;;;;;503075;236;28000;-67
2022/11/25 04:14:48;;;;;;;1.45;1.33;;;5.90;99.90;;;;;;503050;236;27976;-65
2022/11/25 04:16:49;;;;;;;1.30;1.20;;;5.90;99.90;;;;;;503023;236;27570;-66
2022/11/25 04:18:50;;;;;;;2.03;1.50;;;5.90;99.90;;;;;;503047;236;27431;-66
2022/11/25 04:20:52;;;;;;;2.85;1.40;;;5.80;99.90;;;;;;503099;236;27579;-66
2022/11/25 04:22:53;;;;;;;1.40;1.30;;;5.80;99.90;;;;;;503076;236;27573;-68
2022/11/25 04:24:54;;;;;;;3.15;1.40;;;5.90;99.90;;;;;;503061;236;27442;-66
2022/11/25 04:26:55;;;;;;;1.65;1.55;;;5.90;99.90;;;;;;503042;236;27475;-66
2022/11/25 04:28:57;;;;;;;2.05;1.30;;;5.90;99.90;;;;;;503054;236;27926;-69
2022/11/25 04:30:58;;;;;;;3.30;1.37;;;5.90;99.90;;;;;;503074;236;27993;-65
2022/11/25 04:32:59;;;;;;;1.50;1.40;;;6.00;99.90;;;;;;503051;236;27552;-66
2022/11/25 04:35:00;;;;;;;1.95;1.60;;;6.00;99.90;;;;;;503043;236;27484;-66
2022/11/25 04:37:02;;;;;;;2.85;1.80;;;6.10;99.90;;;;;;503013;236;27470;-66
2022/11/25 04:39:03;;;;;;;1.90;1.65;;;6.10;99.90;;;;;;503058;236;27486;-71
2022/11/25 04:41:04;;;;;;;1.92;1.70;;;6.10;99.90;;;;;;503059;236;27435;-67
2022/11/25 04:43:05;;;;;;;1.90;1.65;;;6.20;99.90;;;;;;503058;236;27461;-66
2022/11/25 04:45:07;;;;;;;3.62;1.55;;;6.20;99.90;;;;;;503019;236;27427;-65
2022/11/25 04:47:08;;;;;;;4.18;1.40;;;6.20;99.90;;;;;;503031;236;28013;-66
2022/11/25 04:49:09;;;;;;;2.70;1.40;;;6.10;99.90;;;;;;503080;236;28029;-68
2022/11/25 04:51:10;;;;;;;2.25;1.62;;;6.10;99.90;;;;;;503036;236;27995;-65
2022/11/25 04:53:12;;;;;;;2.60;1.20;;;6.20;99.90;;;;;;503056;236;27506;-67
2022/11/25 04:55:13;;;;;;;2.17;1.70;;;6.20;99.90;;;;;;503043;236;27439;-66
2022/11/25 04:57:14;;;;;;;3.60;1.90;;;6.20;99.90;;;;;;503037;236;27575;-66
2022/11/25 05:01:35;;;;;;;5.75;1.80;;;6.40;99.90;;;;;;503056;236;27925;-66
2022/11/25 05:03:36;;;;;;;5.20;1.77;;;6.50;99.90;;;;;;503034;236;28076;-66
2022/11/25 05:05:38;;;;;;;2.75;1.95;;;6.50;99.90;;;;;;503070;236;27485;-68
2022/11/25 05:07:39;;;;;;;3.95;1.70;;;6.60;99.90;;;;;;503090;236;27510;-66
2022/11/25 05:09:40;;;;;;;3.47;1.60;;;6.60;99.90;;;;;;503070;236;27465;-67
2022/11/25 05:11:41;;;;;;;2.55;1.95;;;6.60;99.90;;;;;;503077;236;27514;-66
2022/11/25 05:13:43;;;;;;;3.25;2.03;;;6.60;99.90;;;;;;503062;236;27562;-65
2022/11/25 05:15:44;;;;;;;2.62;1.70;;;6.60;99.90;;;;;;503094;236;27822;-69
2022/11/25 05:17:45;;;;;;;4.00;2.05;;;6.60;99.90;;;;;;503098;236;27446;-65
2022/11/25 05:19:46;;;;;;;5.28;2.78;;;6.60;99.90;;;;;;503074;236;27944;-66
2022/11/25 05:21:48;;;;;;;4.10;2.10;;;6.60;99.90;;;;;;503018;236;28028;-66
2022/11/25 05:23:49;;;;;;;3.17;1.75;;;6.60;99.90;;;;;;503034;236;27461;-66
2022/11/25 05:25:50;;;;;;;4.70;2.00;;;6.70;99.90;;;;;;503066;236;27490;-66
2022/11/25 05:27:51;;;;;;;5.25;2.22;;;6.70;99.90;;;;;;503068;236;27437;-66
2022/11/25 05:29:53;;;;;;;9.63;2.30;;;6.70;99.90;;;;;;503055;236;27491;-67
2022/11/25 05:31:54;;;;;;;2.08;1.80;;;6.70;99.90;;;;;;503048;236;27518;-65
2022/11/25 05:33:55;;;;;;;2.20;1.60;;;6.70;99.90;;;;;;503039;236;27505;-66
2022/11/25 05:35:56;;;;;;;5.70;2.08;;;6.70;99.90;;;;;;503045;236;27938;-68
2022/11/25 05:37:59;;;;;;;3.97;2.15;;;6.80;99.90;;;;;;503086;236;27941;-67
2022/11/25 05:39:59;;;;;;;2.47;1.80;;;6.80;99.90;;;;;;502964;236;27514;-66
2022/11/25 05:42:00;;;;;;;3.92;2.10;;;6.80;99.90;;;;;;503044;236;27453;-66
2022/11/25 05:44:01;;;;;;;4.50;1.80;;;6.70;99.90;;;;;;503035;236;27589;-66
2022/11/25 05:46:03;;;;;;;3.33;1.77;;;6.80;99.90;;;;;;503060;236;27500;-69
2022/11/25 05:48:04;;;;;;;2.80;1.95;;;6.70;99.90;;;;;;503075;236;27442;-66
2022/11/25 05:50:05;;;;;;;4.60;1.95;;;6.70;99.90;;;;;;503056;236;27469;-66
2022/11/25 05:52:06;;;;;;;7.93;2.10;;;6.80;99.90;;;;;;502936;236;27918;-66
2022/11/25 05:54:08;;;;;;;2.78;1.90;;;6.80;99.90;;;;;;503034;236;28051;-65
2022/11/25 05:56:09;;;;;;;3.35;1.80;;;6.70;99.90;;;;;;503089;236;27488;-69
2022/11/25 05:58:10;;;;;;;1.95;1.85;;;6.70;99.90;;;;;;503075;236;27502;-66
2022/11/25 06:00:11;;;;;;;3.85;1.90;;;6.70;99.90;;;;;;503080;236;27481;-67
2022/11/25 06:02:13;;;;;;;9.05;2.60;;;6.80;99.90;;;;;;503031;236;27477;-65
2022/11/25 06:04:14;;;;;;;3.75;2.08;;;6.80;99.90;;;;;;503019;236;27509;-66
2022/11/25 06:06:15;;;;;;;2.40;2.00;;;6.90;99.90;;;;;;503061;236;27481;-69
2022/11/25 06:08:17;;;;;;;3.45;1.75;;;6.90;99.90;;;;;;503075;236;27915;-66
2022/11/25 06:10:18;;;;;;;4.18;1.98;;;6.90;99.90;;;;;;503052;236;27972;-67
2022/11/25 06:12:19;;;;;;;6.10;2.28;;;6.90;99.90;;;;;;503038;236;27503;-66
2022/11/25 06:14:20;;;;;;;1.70;1.60;;;6.90;99.90;;;;;;503035;236;27528;-66
2022/11/25 06:16:22;;;;;;;6.75;2.00;;;6.80;99.90;;;;;;503074;236;27486;-68
2022/11/25 06:18:23;;;;;;;3.17;1.90;;;6.80;99.90;;;;;;503053;236;27481;-65
2022/11/25 06:20:24;;;;;;;5.25;2.00;;;6.80;99.90;;;;;;503030;236;27474;-66
2022/11/25 06:22:25;;;;;;;6.72;2.65;;;6.80;99.90;;;;;;503040;236;27453;-66
2022/11/25 06:24:27;;;;;;;4.40;2.10;;;6.70;99.90;;;;;;503059;236;27910;-65
2022/11/25 06:26:28;;;;;;;3.95;2.00;;;6.80;99.90;;;;;;503066;236;28271;-68
2022/11/25 06:28:29;;;;;;;5.75;2.15;;;6.80;99.90;;;;;;503088;236;27453;-65
2022/11/25 06:30:30;;;;;;;2.00;1.90;;;6.80;99.90;;;;;;503047;236;27470;-66
2022/11/25 06:32:32;;;;;;;4.03;2.20;;;6.80;99.90;;;;;;503061;236;27473;-65
2022/11/25 06:34:35;;;;;;;5.45;2.30;;;6.80;99.90;;;;;;503040;236;27481;-66
2022/11/25 06:36:34;;;;;;;6.28;2.90;;;6.80;99.90;;;;;;502925;236;27500;-69
2022/11/25 06:38:35;;;;;;;4.40;2.25;;;6.80;99.90;;;;;;503060;236;27507;-65
2022/11/25 06:40:37;;;;;;;3.83;1.98;;;6.80;99.90;;;;;;503063;236;28041;-67
2022/11/25 06:42:38;;;;;;;3.70;2.10;;;6.80;99.90;;;;;;503105;236;27983;-66
2022/11/25 06:44:39;;;;;;;3.30;2.00;;;6.80;99.90;;;;;;503093;236;27453;-65
2022/11/25 06:46:40;;;;;;;4.07;2.72;;;6.80;99.90;;;;;;503110;236;27477;-69
2022/11/25 06:48:42;;;;;;;1.80;1.70;;;6.80;99.90;;;;;;503084;236;27597;-66
2022/11/25 06:50:43;;;;;;;2.30;1.95;;;6.80;99.90;;;;;;503089;236;27626;-66
2022/11/25 06:52:44;;;;;;;4.05;2.25;;;6.80;99.90;;;;;;503066;236;27517;-66
2022/11/25 06:54:45;;;;;;;5.05;2.20;;;6.80;99.90;;;;;;503057;236;27885;-65
2022/11/25 06:56:52;;;;;;;4.20;2.00;;;6.70;99.90;;;;;;503086;236;27961;-69
2022/11/25 06:58:51;;;;;;;3.22;2.10;;;6.80;99.90;;;;;;502903;236;28055;-69
2022/11/25 07:00:52;;;;;;;2.10;1.80;;;6.70;99.90;;;;;;503094;236;27447;-65
2022/11/25 07:02:53;;;;;;;3.25;2.10;;;6.80;99.90;;;;;;503073;236;27501;-68
2022/11/25 07:04:54;;;;;;;3.15;2.00;;;6.80;99.90;;;;;;503085;236;27439;-66
2022/11/25 07:06:56;;;;;;;3.70;1.95;;;6.70;99.90;;;;;;503055;236;27535;-66
2022/11/25 07:08:57;;;;;;;2.50;2.10;;;6.80;99.90;;;;;;503122;236;27864;-69
2022/11/25 07:10:58;;;;;;;4.00;1.92;;;6.80;99.90;;;;;;503097;236;27446;-66
2022/11/25 07:12:59;;;;;;;4.68;2.58;;;6.80;99.90;;;;;;503088;236;27467;-66
2022/11/25 07:15:01;;;;;;;3.47;2.05;;;6.80;99.90;;;;;;503032;236;27571;-65
2022/11/25 07:17:02;;;;;;;6.35;2.25;;;6.80;99.90;;;;;;502953;236;27501;-66
2022/11/25 07:19:03;;;;;;;3.53;2.12;;;6.80;99.90;;;;;;503069;236;27526;-69
2022/11/25 07:21:05;;;;;;;2.33;2.10;;;6.80;99.90;;;;;;503032;236;27897;-66
2022/11/25 07:23:06;;;;;;;5.70;2.53;;;6.80;99.90;;;;;;502958;236;27955;-67
2022/11/25 07:25:08;;;;;;;6.70;2.53;;;6.80;99.90;;;;;;503006;236;27445;-65
2022/11/25 07:27:08;;;;;;;4.93;2.10;;;6.80;99.90;;;;;;503041;236;27468;-66
2022/11/25 07:29:10;;;;;;;2.72;2.15;;;6.80;99.90;;;;;;503264;236;27514;-68
2022/11/25 07:31:11;;;;;;;2.17;2.08;;;6.90;99.90;;;;;;503240;236;27441;-66
2022/11/25 07:33:12;;;;;;;4.85;2.10;;;6.90;99.90;;;;;;503214;236;27541;-65
2022/11/25 07:35:13;;;;;;;3.90;2.47;;;6.90;99.90;;;;;;503059;236;27958;-65
2022/11/25 07:37:16;;;;;;;3.70;2.35;;;6.90;99.90;;;;;;503065;236;27904;-66
2022/11/25 07:39:16;;;;;;;3.72;2.45;;;6.90;99.90;;;;;;502960;236;27940;-69
2022/11/25 07:41:17;;;;;;;2.92;2.10;;;6.90;99.90;;;;;;503049;236;27559;-66
2022/11/25 07:43:18;;;;;;;5.68;2.35;;;6.90;99.90;;;;;;503001;236;27513;-66
2022/11/25 07:45:20;;;;;;;4.72;2.15;;;6.90;99.90;;;;;;502831;236;27447;-65
2022/11/25 07:47:21;;;;;;;5.70;2.20;;;6.90;99.90;;;;;;503041;236;27438;-66
2022/11/25 07:49:25;;;;;;;5.35;2.75;;;6.90;99.90;;;;;;503145;236;27467;-69
2022/11/25 07:51:23;;;;;;;3.15;2.45;;;6.90;99.90;;;;;;502885;236;28017;-66
2022/11/25 07:53:25;;;;;;;4.60;2.50;;;6.90;99.90;;;;;;503099;236;27954;-66
2022/11/25 07:55:26;;;;;;;3.58;2.17;;;6.90;99.90;;;;;;503063;236;27885;-66
2022/11/25 07:57:27;;;;;;;8.85;2.50;;;6.90;99.90;;;;;;503085;236;27426;-66
2022/11/25 07:59:29;;;;;;;2.70;2.50;;;6.90;99.90;;;;;;503088;236;27471;-68
2022/11/25 08:01:30;;;;;;;6.72;3.10;;;6.90;99.90;;;;;;503073;236;27445;-65
2022/11/25 08:03:31;;;;;;;3.65;2.50;;;7.00;99.90;;;;;;503059;236;27485;-66
2022/11/25 08:05:32;;;;;;;5.30;2.83;;;7.00;99.90;;;;;;503028;236;27530;-66
2022/11/25 08:07:34;;;;;;;5.28;2.40;;;6.90;99.90;;;;;;503075;236;27948;-65
2022/11/25 08:09:35;;;;;;;6.18;3.05;;;6.90;99.90;;;;;;503073;236;27973;-67
2022/11/25 08:11:36;;;;;;;3.42;2.37;;;7.00;99.90;;;;;;503053;236;27442;-66
2022/11/25 08:13:37;;;;;;;6.62;2.70;;;7.00;99.90;;;;;;503091;236;27476;-66
2022/11/25 08:15:39;;;;;;;5.75;2.53;;;7.00;99.90;;;;;;503051;236;27545;-65
2022/11/25 08:17:40;;;;;;;5.18;3.37;;;7.00;99.90;;;;;;503101;236;27445;-66
2022/11/25 08:19:41;;;;;;;5.70;2.50;;;6.90;99.90;;;;;;503114;236;27471;-67
2022/11/25 08:21:42;;;;;;;9.32;3.35;;;6.90;99.90;;;;;;503115;236;28004;-66
2022/11/25 08:23:46;;;;;;;3.28;2.60;;;6.90;99.90;;;;;;503092;236;27949;-66
2022/11/25 08:25:45;;;;;;;4.32;2.55;;;7.00;99.90;;;;;;502896;236;27491;-66
2022/11/25 08:27:47;;;;;;;3.55;2.80;;;7.00;99.90;;;;;;503102;236;27489;-65
2022/11/25 08:29:47;;;;;;;4.10;2.60;;;7.10;99.90;;;;;;503100;236;27485;-67
2022/11/25 08:31:49;;;;;;;5.45;3.08;;;7.10;99.90;;;;;;503079;236;27439;-66
2022/11/25 08:33:50;;;;;;;5.45;2.78;;;7.20;99.90;;;;;;503087;236;27506;-66
2022/11/25 08:35:51;;;;;;;4.68;2.67;;;7.20;99.90;;;;;;503040;236;28634;-66
2022/11/25 08:37:52;;;;;;;4.57;3.08;;;7.30;99.90;;;;;;503107;236;28010;-66
2022/11/25 08:39:54;;;;;;;6.65;3.40;;;7.30;99.90;;;;;;503087;236;27583;-67
2022/11/25 08:41:55;;;;;;;8.77;3.65;;;7.30;99.90;;;;;;503063;236;27505;-67
2022/11/25 08:43:56;;;;;;;7.40;3.23;;;7.30;99.90;;;;;;503043;236;27478;-66
2022/11/25 08:45:57;;;;;;;8.68;2.97;;;7.30;99.90;;;;;;503018;236;28781;-68
2022/11/25 08:47:59;;;;;;;5.15;3.17;;;7.20;99.90;;;;;;503085;236;27553;-66
2022/11/25 08:50:00;;;;;;;4.43;2.60;;;7.20;99.90;;;;;;503082;236;27477;-66
2022/11/25 08:52:01;;;;;;;4.28;2.67;;;7.20;99.90;;;;;;503089;236;27930;-66
2022/11/25 08:54:03;;;;;;;5.20;2.80;;;7.20;99.90;;;;;;503051;236;27599;-66
2022/11/25 08:56:04;;;;;;;5.30;2.95;;;7.20;99.90;;;;;;503085;236;27583;-68
2022/11/25 08:58:08;;;;;;;4.35;2.55;;;7.30;99.90;;;;;;503086;236;27514;-66
2022/11/25 09:00:06;;;;;;;6.43;2.80;;;7.30;99.90;;;;;;502760;236;27481;-66
2022/11/25 09:02:08;;;;;;;6.87;2.92;;;7.30;99.90;;;;;;503064;236;27433;-65
2022/11/25 09:04:09;;;;;;;10.68;3.42;;;7.40;99.90;;;;;;502994;236;27940;-66
2022/11/25 09:06:10;;;;;;;3.28;2.60;;;7.40;99.90;;;;;;503106;236;28042;-70
2022/11/25 09:08:11;;;;;;;3.90;3.12;;;7.40;99.90;;;;;;503079;236;27436;-66
2022/11/25 09:10:13;;;;;;;3.12;2.65;;;7.50;99.90;;;;;;503083;236;27469;-66
2022/11/25 09:12:14;;;;;;;5.57;3.28;;;7.50;99.90;;;;;;503020;236;27584;-65
2022/11/25 09:14:15;;;;;;;4.93;3.00;;;7.50;99.90;;;;;;503039;236;27449;-66
2022/11/25 09:16:16;;;;;;;5.62;3.25;;;7.50;99.90;;;;;;503069;236;27510;-68
2022/11/25 09:18:19;;;;;;;5.32;2.80;;;7.50;99.90;;;;;;502960;236;28029;-65
2022/11/25 09:20:19;;;;;;;5.72;3.20;;;7.50;99.90;;;;;;502810;236;27933;-66
2022/11/25 09:22:20;;;;;;;6.22;3.20;;;7.50;99.90;;;;;;502808;236;27454;-65
2022/11/25 09:24:21;;;;;;;3.87;2.80;;;7.40;99.90;;;;;;502878;236;27474;-66
2022/11/25 09:26:23;;;;;;;9.98;3.47;;;7.50;99.90;;;;;;502920;236;27472;-66
2022/11/25 09:28:24;;;;;;;5.15;3.00;;;7.40;99.90;;;;;;503051;236;27481;-65
2022/11/25 09:30:25;;;;;;;6.10;2.50;;;7.40;99.90;;;;;;503023;236;27947;-66
2022/11/25 09:32:26;;;;;;;3.87;2.92;;;7.50;99.90;;;;;;503075;236;27971;-69
2022/11/25 09:34:28;;;;;;;6.53;3.22;;;7.50;99.90;;;;;;503062;236;27539;-66
2022/11/25 09:36:29;;;;;;;7.22;2.85;;;7.50;99.90;;;;;;503058;236;27467;-67
2022/11/25 09:38:30;;;;;;;4.47;3.28;;;7.50;99.90;;;;;;503050;236;27433;-65
2022/11/25 09:40:31;;;;;;;4.62;3.00;;;7.50;99.90;;;;;;503045;236;27502;-66
2022/11/25 09:47:13;;;;;;;4.90;3.07;;;7.50;99.90;;;;;;503092;236;28777;-66
2022/11/25 09:49:13;;;;;;;4.87;3.22;;;7.50;99.90;;;;;;503064;236;28817;-67
2022/11/25 09:51:16;;;;;;;6.57;2.85;;;7.60;99.90;;;;;;503055;236;27439;-65
2022/11/25 09:53:16;;;;;;;6.95;3.50;;;7.60;99.90;;;;;;503005;236;27595;-65
2022/11/25 09:55:17;;;;;;;5.75;3.25;;;7.60;99.90;;;;;;502966;236;27518;-69
2022/11/25 09:57:18;;;;;;;9.25;3.75;;;7.70;99.90;;;;;;503079;236;27894;-66
2022/11/25 09:59:20;;;;;;;6.05;4.00;;;7.70;99.90;;;;;;503048;236;27949;-66
2022/11/25 10:01:21;;;;;;;10.70;4.37;;;7.70;99.90;;;;;;503043;236;27543;-66
2022/11/25 10:03:22;;;;;;;10.98;4.20;;;7.70;99.90;;;;;;503061;236;27533;-65
2022/11/25 10:05:23;;;;;;;5.73;3.57;;;7.70;99.90;;;;;;503062;236;27488;-67
2022/11/25 10:07:27;;;;;;;6.77;3.90;;;7.70;99.90;;;;;;503050;236;28760;-66
2022/11/25 10:09:26;;;;;;;9.63;3.67;;;7.70;99.90;;;;;;502887;236;27943;-65
2022/11/25 10:13:48;;;;;;;8.70;3.67;;;7.80;99.90;;;;;;481246;246;28136;-66
2022/11/25 10:15:49;;;;;;;6.00;4.00;;;7.80;99.90;;;;;;482093;246;27961;-67
2022/11/25 10:17:50;;;;;;;8.25;3.75;;;7.80;99.90;;;;;;497188;239;28867;-68
2022/11/25 10:19:52;;;;;;;6.50;3.73;;;7.80;99.90;;;;;;497226;239;27488;-70
2022/11/25 10:21:53;;;;;;;6.13;3.07;;;7.90;99.90;;;;;;497210;239;28754;-67
2022/11/25 10:23:54;;;;;;;7.93;3.25;;;7.90;99.90;;;;;;497198;239;27921;-68
2022/11/25 10:25:55;;;;;;;3.30;3.00;;;7.90;99.90;;;;;;497178;239;27445;-66
2022/11/25 10:27:57;;;;;;;4.77;3.27;;;7.90;99.90;;;;;;497173;239;27926;-66
2022/11/25 10:29:58;;;;;;;3.50;2.83;;;7.90;99.90;;;;;;497230;239;28423;-69
2022/11/25 10:31:59;;;;;;;3.43;2.93;;;7.90;99.90;;;;;;497216;239;27816;-66
2022/11/25 10:34:00;;;;;;;5.23;3.13;;;8.00;99.90;;;;;;497222;239;28315;-67
2022/11/25 10:36:02;;;;;;;4.20;3.20;;;8.10;99.90;;;;;;497180;239;28011;-66
2022/11/25 10:38:03;;;;;;;5.80;3.30;;;8.10;99.90;;;;;;497198;239;28163;-66
2022/11/25 10:40:04;;;;;;;4.10;3.17;;;8.10;99.90;;;;;;497213;239;29327;-69
2022/11/25 10:42:07;;;;;;;3.40;2.93;;;8.10;99.90;;;;;;497152;239;29329;-66
2022/11/25 10:44:07;;;;;;;4.90;2.90;;;8.10;99.90;;;;;;497141;239;28607;-67
2022/11/25 10:46:08;;;;;;;8.37;3.70;;;8.20;99.90;;;;;;497161;239;28370;-66
2022/11/25 10:48:09;;;;;;;5.40;3.28;;;8.20;99.90;;;;;;497179;239;27647;-66
2022/11/25 10:50:10;;;;;;;6.17;3.20;;;8.10;99.90;;;;;;497221;239;27489;-69
2022/11/25 10:52:12;;;;;;;4.67;2.83;;;8.10;99.90;;;;;;497231;239;27754;-66
2022/11/25 10:54:13;;;;;;;8.37;3.07;;;8.10;99.90;;;;;;497215;239;28039;-67
2022/11/25 10:56:14;;;;;;;8.20;3.40;;;8.20;99.90;;;;;;497205;239;27555;-66